Time;durP1;ratioP1;P1;durP2;ratioP2;P2;SDS_P1;SDS_P2;PMS_P1;PMS_P2;Temp;Humidity;BMP_temperature;BMP_pressure;BME280_temperature;BME280_humidity;BME280_pressure;Samples;Min_cycle;Max_cycle;Signal;HPM_P1;HPM_P2
2022/10/26 00:00:12;;;;;;;13.20;4.68;;;;;;;;;;7390249;19;20010;-73
2022/10/26 00:02:38;;;;;;;11.05;4.22;;;;;;;;;;7389309;19;19999;-73
2022/10/26 00:05:04;;;;;;;10.25;4.60;;;;;;;;;;7390883;19;19999;-73
2022/10/26 00:07:29;;;;;;;9.50;4.75;;;;;;;;;;7390951;19;20531;-73
2022/10/26 00:09:54;;;;;;;11.05;3.92;;;;;;;;;;7387327;19;20018;-73
2022/10/26 00:12:20;;;;;;;8.85;4.18;;;;;;;;;;7389407;19;20044;-73
2022/10/26 00:14:45;;;;;;;11.25;4.65;;;;;;;;;;7391035;19;20036;-73
2022/10/26 00:17:10;;;;;;;8.70;4.25;;;;;;;;;;7389045;19;20013;-73
2022/10/26 00:19:37;;;;;;;10.30;4.55;;;;;;;;;;7390421;19;20106;-73
2022/10/26 00:22:02;;;;;;;12.68;4.65;;;;;;;;;;7389729;19;20432;-74
2022/10/26 00:24:28;;;;;;;10.57;4.07;;;;;;;;;;7388487;19;19998;-73
2022/10/26 00:26:53;;;;;;;12.55;4.18;;;;;;;;;;7390212;19;19995;-73
2022/10/26 00:29:18;;;;;;;15.32;4.95;;;;;;;;;;7388527;19;19999;-73
2022/10/26 00:31:44;;;;;;;12.25;4.43;;;;;;;;;;7388839;19;19994;-73
2022/10/26 00:34:10;;;;;;;11.80;4.03;;;;;;;;;;7390373;19;20002;-73
2022/10/26 00:36:35;;;;;;;10.85;4.22;;;;;;;;;;7390415;19;20015;-73
2022/10/26 00:39:01;;;;;;;7.15;4.18;;;;;;;;;;7390653;19;19999;-73
2022/10/26 00:41:30;;;;;;;9.10;4.10;;;;;;;;;;7389050;19;20019;-73
2022/10/26 00:43:56;;;;;;;9.13;4.07;;;;;;;;;;7390370;19;20054;-73
2022/10/26 00:46:28;;;;;;;9.18;3.67;;;;;;;;;;7389062;19;20452;-73
2022/10/26 00:49:05;;;;;;;8.23;4.18;;;;;;;;;;7390166;19;20024;-73
2022/10/26 00:51:34;;;;;;;10.90;4.00;;;;;;;;;;7388841;19;20720;-73
2022/10/26 00:54:01;;;;;;;12.02;3.90;;;;;;;;;;7388745;19;19994;-73
2022/10/26 00:56:29;;;;;;;11.02;4.00;;;;;;;;;;7389603;19;19991;-73
2022/10/26 00:58:56;;;;;;;8.48;3.95;;;;;;;;;;7388188;19;20006;-73
2022/10/26 01:01:22;;;;;;;8.80;4.07;;;;;;;;;;7386194;19;20059;-73
2022/10/26 01:03:48;;;;;;;9.45;4.25;;;;;;;;;;7389171;19;20006;-73
2022/10/26 01:06:14;;;;;;;9.20;4.38;;;;;;;;;;7389289;19;20014;-73
2022/10/26 01:08:41;;;;;;;7.75;4.00;;;;;;;;;;7388006;19;20018;-73
2022/10/26 01:11:06;;;;;;;9.55;4.13;;;;;;;;;;7384309;19;20005;-73
2022/10/26 01:13:34;;;;;;;9.82;4.18;;;;;;;;;;7388509;19;19999;-72
2022/10/26 01:16:14;;;;;;;11.40;4.28;;;;;;;;;;7389088;19;20495;-73
2022/10/26 01:18:45;;;;;;;10.88;4.13;;;;;;;;;;7388792;19;19998;-73
2022/10/26 01:21:15;;;;;;;;;;;;;;;;;;7384494;19;20003;-73
2022/10/26 01:23:51;;;;;;;13.00;4.63;;;;;;;;;;7388552;19;19910;-72
2022/10/26 01:26:39;;;;;;;12.05;4.00;;;;;;;;;;7386565;19;20001;-72
2022/10/26 01:29:16;;;;;;;11.88;4.20;;;;;;;;;;7387126;19;20002;-72
2022/10/26 01:31:51;;;;;;;10.02;4.15;;;;;;;;;;7386667;19;20078;-72
2022/10/26 01:34:22;;;;;;;11.85;3.97;;;;;;;;;;7387732;19;20003;-73
2022/10/26 01:36:57;;;;;;;8.70;4.47;;;;;;;;;;7386357;19;20030;-74
2022/10/26 01:39:28;;;;;;;8.05;4.25;;;;;;;;;;7387281;19;20005;-74
2022/10/26 01:42:00;;;;;;;6.55;3.95;;;;;;;;;;7386572;19;20082;-73
2022/10/26 01:44:32;;;;;;;8.77;4.18;;;;;;;;;;7387646;19;19994;-73
2022/10/26 01:46:58;;;;;;;10.52;4.30;;;;;;;;;;7392080;19;20003;-73
2022/10/26 01:49:35;;;;;;;9.32;4.38;;;;;;;;;;7385628;19;20010;-73
2022/10/26 01:52:01;;;;;;;11.57;4.63;;;;;;;;;;7385866;19;20003;-73
2022/10/26 01:54:27;;;;;;;10.75;4.43;;;;;;;;;;7387695;19;20075;-73
2022/10/26 01:56:58;;;;;;;10.68;4.57;;;;;;;;;;7386902;19;20019;-73
2022/10/26 01:59:49;;;;;;;11.63;5.07;;;;;;;;;;7384814;19;20007;-73
2022/10/26 02:02:28;;;;;;;11.27;4.65;;;;;;;;;;7385567;19;19998;-72
2022/10/26 02:05:09;;;;;;;14.80;4.70;;;;;;;;;;7384938;19;20118;-73
2022/10/26 02:07:56;;;;;;;13.80;4.33;;;;;;;;;;7387238;19;20009;-73
2022/10/26 02:10:27;;;;;;;11.88;4.43;;;;;;;;;;7386133;19;20440;-73
2022/10/26 02:13:05;;;;;;;12.77;4.60;;;;;;;;;;7385446;19;20471;-73
2022/10/26 02:15:51;;;;;;;11.23;4.15;;;;;;;;;;7387082;19;20002;-73
2022/10/26 02:18:35;;;;;;;10.52;4.07;;;;;;;;;;7386702;19;20003;-73
2022/10/26 02:21:08;;;;;;;9.63;4.30;;;;;;;;;;7384290;19;20027;-73
2022/10/26 02:23:35;;;;;;;11.88;4.22;;;;;;;;;;7384572;19;20005;-73
2022/10/26 02:26:06;;;;;;;19.30;5.47;;;;;;;;;;7386151;19;20002;-73
2022/10/26 02:28:42;;;;;;;10.43;4.45;;;;;;;;;;7385684;19;20406;-73
2022/10/26 02:31:08;;;;;;;11.57;5.32;;;;;;;;;;7381844;19;20002;-72
2022/10/26 02:33:43;;;;;;;8.90;4.47;;;;;;;;;;7386633;19;20003;-72
2022/10/26 02:36:11;;;;;;;13.50;4.45;;;;;;;;;;7386156;19;20002;-72
2022/10/26 02:38:39;;;;;;;9.23;4.22;;;;;;;;;;7384045;19;20002;-72
2022/10/26 02:41:06;;;;;;;11.82;4.70;;;;;;;;;;7383678;19;20021;-72
2022/10/26 02:43:39;;;;;;;8.82;4.03;;;;;;;;;;7384103;19;20519;-72
2022/10/26 02:46:09;;;;;;;9.90;4.72;;;;;;;;;;7386788;19;20273;-72
2022/10/26 02:48:35;;;;;;;10.03;4.40;;;;;;;;;;7387498;19;19999;-71
2022/10/26 02:51:12;;;;;;;11.55;4.28;;;;;;;;;;7392620;19;20260;-71
2022/10/26 02:53:48;;;;;;;7.72;4.13;;;;;;;;;;7391477;19;20452;-72
2022/10/26 02:56:20;;;;;;;11.75;4.35;;;;;;;;;;7393897;19;20031;-72
2022/10/26 02:58:50;;;;;;;8.80;4.32;;;;;;;;;;7393401;19;20022;-71
2022/10/26 03:01:16;;;;;;;9.68;4.18;;;;;;;;;;7388970;19;20005;-72
2022/10/26 03:03:41;;;;;;;11.90;4.38;;;;;;;;;;7393197;19;19991;-72
2022/10/26 03:06:06;;;;;;;11.20;4.20;;;;;;;;;;7393254;19;19994;-72
2022/10/26 03:08:32;;;;;;;9.50;4.65;;;;;;;;;;7391848;19;20003;-72
2022/10/26 03:10:57;;;;;;;8.13;4.13;;;;;;;;;;7390442;19;20003;-71
2022/10/26 03:13:22;;;;;;;7.82;4.18;;;;;;;;;;7391049;19;19995;-72
2022/10/26 03:15:48;;;;;;;9.63;4.20;;;;;;;;;;7393067;19;20472;-72
2022/10/26 03:18:13;;;;;;;11.30;4.50;;;;;;;;;;7393779;19;20356;-72
2022/10/26 03:20:38;;;;;;;12.60;4.28;;;;;;;;;;7390968;19;19998;-72
2022/10/26 03:23:04;;;;;;;8.45;4.47;;;;;;;;;;7391241;19;20088;-72
2022/10/26 03:25:29;;;;;;;9.82;4.70;;;;;;;;;;7390651;19;20014;-72
2022/10/26 03:28:00;;;;;;;11.43;4.68;;;;;;;;;;7391969;19;20019;-72
2022/10/26 03:30:29;;;;;;;11.10;4.50;;;;;;;;;;7390682;19;20003;-72
2022/10/26 03:32:55;;;;;;;13.57;4.50;;;;;;;;;;7390568;19;20051;-72
2022/10/26 03:35:21;;;;;;;11.25;4.80;;;;;;;;;;7392487;19;20016;-72
2022/10/26 03:37:46;;;;;;;6.95;4.35;;;;;;;;;;7393562;19;20102;-72
2022/10/26 03:40:12;;;;;;;11.10;4.50;;;;;;;;;;7390904;19;20005;-71
2022/10/26 03:42:38;;;;;;;8.85;3.90;;;;;;;;;;7391452;19;20030;-72
2022/10/26 03:45:05;;;;;;;9.98;4.35;;;;;;;;;;7391828;19;20002;-73
2022/10/26 03:47:30;;;;;;;10.45;4.57;;;;;;;;;;7391741;19;19994;-72
2022/10/26 03:49:55;;;;;;;10.63;4.47;;;;;;;;;;7389441;19;20169;-72
2022/10/26 03:52:23;;;;;;;10.27;5.30;;;;;;;;;;7388811;19;19991;-72
2022/10/26 03:54:48;;;;;;;14.02;5.05;;;;;;;;;;7391475;19;20009;-72
2022/10/26 03:57:13;;;;;;;11.50;4.95;;;;;;;;;;7390950;19;19998;-72
2022/10/26 03:59:38;;;;;;;16.23;5.18;;;;;;;;;;7389245;19;19999;-72
2022/10/26 04:02:04;;;;;;;8.20;4.43;;;;;;;;;;7389422;19;19991;-72
2022/10/26 04:04:29;;;;;;;10.00;4.50;;;;;;;;;;7391004;19;20436;-72
2022/10/26 04:06:57;;;;;;;13.98;4.47;;;;;;;;;;7391053;19;19990;-72
2022/10/26 04:09:22;;;;;;;11.73;4.72;;;;;;;;;;7389603;19;19995;-72
2022/10/26 04:11:48;;;;;;;9.05;4.07;;;;;;;;;;7389373;19;20050;-72
2022/10/26 04:14:13;;;;;;;10.18;4.90;;;;;;;;;;7390643;19;20627;-72
2022/10/26 04:16:39;;;;;;;12.45;4.75;;;;;;;;;;7390676;19;20094;-72
2022/10/26 04:19:05;;;;;;;11.35;4.30;;;;;;;;;;7390557;19;20094;-72
2022/10/26 04:21:32;;;;;;;7.05;3.97;;;;;;;;;;7389332;19;20019;-71
2022/10/26 04:23:57;;;;;;;10.48;4.13;;;;;;;;;;7390364;19;20061;-73
2022/10/26 04:26:23;;;;;;;11.82;4.88;;;;;;;;;;7390596;19;19995;-72
2022/10/26 04:28:48;;;;;;;8.70;4.05;;;;;;;;;;7387559;19;20003;-71
2022/10/26 04:31:13;;;;;;;9.65;4.82;;;;;;;;;;7387333;19;20409;-71
2022/10/26 04:33:39;;;;;;;10.45;4.32;;;;;;;;;;7390389;19;20691;-71
2022/10/26 04:36:04;;;;;;;11.80;4.68;;;;;;;;;;7390569;19;19999;-71
2022/10/26 04:38:29;;;;;;;9.07;4.43;;;;;;;;;;7390297;19;19991;-71
2022/10/26 04:40:55;;;;;;;11.18;4.63;;;;;;;;;;7388137;19;20969;-71
2022/10/26 04:43:20;;;;;;;10.48;4.70;;;;;;;;;;7388925;19;19998;-71
2022/10/26 04:45:45;;;;;;;8.77;4.60;;;;;;;;;;7390918;19;19995;-71
2022/10/26 04:48:12;;;;;;;9.68;3.80;;;;;;;;;;7393184;19;20346;-71
2022/10/26 04:50:38;;;;;;;11.57;4.82;;;;;;;;;;7389318;19;20379;-72
2022/10/26 04:53:05;;;;;;;12.50;4.93;;;;;;;;;;7388712;19;20005;-72
2022/10/26 04:55:30;;;;;;;10.63;4.32;;;;;;;;;;7389481;19;20003;-71
2022/10/26 04:58:02;;;;;;;11.23;4.60;;;;;;;;;;7392495;19;20026;-72
2022/10/26 05:00:28;;;;;;;;;;;;;;;;;;7391934;19;20308;-72
2022/10/26 05:03:21;;;;;;;12.20;5.07;;;;;;;;;;7393071;19;19950;-71
2022/10/26 05:05:58;;;;;;;10.90;4.40;;;;;;;;;;7389398;19;19995;-72
2022/10/26 05:08:29;;;;;;;36.70;22.10;;;;;;;;;;7390768;19;20014;-72
2022/10/26 05:10:55;;;;;;;48.15;27.45;;;;;;;;;;7392175;19;19998;-72
2022/10/26 05:13:20;;;;;;;20.25;9.27;;;;;;;;;;7386449;19;20003;-72
2022/10/26 05:15:46;;;;;;;12.10;5.88;;;;;;;;;;7382456;19;20020;-72
2022/10/26 05:18:11;;;;;;;10.68;4.72;;;;;;;;;;7390550;19;20099;-72
2022/10/26 05:20:36;;;;;;;12.55;4.30;;;;;;;;;;7389966;19;20034;-72
2022/10/26 05:23:04;;;;;;;12.52;4.20;;;;;;;;;;7391359;19;19994;-72
2022/10/26 05:25:32;;;;;;;14.70;4.78;;;;;;;;;;7393569;19;19999;-71
2022/10/26 05:27:59;;;;;;;11.75;4.75;;;;;;;;;;7390321;19;20002;-72
2022/10/26 05:30:24;;;;;;;8.40;4.50;;;;;;;;;;7391044;19;20328;-71
2022/10/26 05:32:57;;;;;;;13.57;4.90;;;;;;;;;;7391134;19;19994;-72
2022/10/26 05:35:24;;;;;;;10.57;4.28;;;;;;;;;;7392096;19;20002;-73
2022/10/26 05:37:50;;;;;;;7.75;4.47;;;;;;;;;;7391593;19;19995;-73
2022/10/26 05:40:16;;;;;;;10.82;4.43;;;;;;;;;;7390110;19;20006;-75
2022/10/26 05:42:42;;;;;;;13.05;4.68;;;;;;;;;;7390539;19;20006;-75
2022/10/26 05:45:07;;;;;;;8.38;4.78;;;;;;;;;;7392257;19;19999;-80
2022/10/26 05:47:40;;;;;;;25.80;15.65;;;;;;;;;;7390715;19;20011;-74
2022/10/26 05:50:06;;;;;;;12.15;6.25;;;;;;;;;;7391049;19;20078;-72
2022/10/26 05:52:44;;;;;;;13.35;5.13;;;;;;;;;;7391344;19;19999;-72
2022/10/26 05:55:12;;;;;;;16.58;5.03;;;;;;;;;;7392086;19;20003;-72
2022/10/26 05:57:38;;;;;;;15.88;5.32;;;;;;;;;;7392483;19;20013;-71
2022/10/26 06:00:09;;;;;;;10.45;4.68;;;;;;;;;;7391310;19;20003;-72
2022/10/26 06:02:48;;;;;;;8.90;4.78;;;;;;;;;;7391805;19;20009;-72
2022/10/26 06:05:21;;;;;;;10.73;4.90;;;;;;;;;;7390721;19;20002;-72
2022/10/26 06:07:46;;;;;;;11.18;4.78;;;;;;;;;;7391205;19;20007;-72
2022/10/26 06:10:15;;;;;;;10.13;5.30;;;;;;;;;;7388642;19;20026;-72
2022/10/26 06:12:40;;;;;;;14.30;4.97;;;;;;;;;;7383835;19;20090;-72
2022/10/26 06:15:08;;;;;;;11.60;4.55;;;;;;;;;;7386099;19;20457;-71
2022/10/26 06:18:04;;;;;;;10.98;5.25;;;;;;;;;;7385417;19;20462;-71
2022/10/26 06:20:49;;;;;;;12.35;5.63;;;;;;;;;;7386949;19;20023;-72
2022/10/26 06:23:32;;;;;;;10.38;4.35;;;;;;;;;;7385654;19;20009;-72
2022/10/26 06:26:26;;;;;;;10.10;4.75;;;;;;;;;;7391672;19;20017;-72
2022/10/26 06:29:13;;;;;;;16.13;4.82;;;;;;;;;;7388300;19;20015;-71
2022/10/26 06:31:38;;;;;;;30.40;19.30;;;;;;;;;;7388050;19;20049;-72
2022/10/26 06:34:04;;;;;;;21.77;9.45;;;;;;;;;;7389628;19;19999;-71
2022/10/26 06:36:32;;;;;;;16.75;8.98;;;;;;;;;;7388277;19;20434;-72
2022/10/26 06:39:04;;;;;;;16.75;5.20;;;;;;;;;;7389036;19;20061;-72
2022/10/26 06:41:32;;;;;;;10.32;4.50;;;;;;;;;;7387395;19;20727;-71
2022/10/26 06:43:57;;;;;;;11.35;4.68;;;;;;;;;;7390605;19;20455;-72
2022/10/26 06:46:38;;;;;;;10.15;4.57;;;;;;;;;;7386336;19;19999;-72
2022/10/26 06:49:17;;;;;;;11.30;4.95;;;;;;;;;;7387745;19;20033;-71
2022/10/26 06:52:06;;;;;;;12.32;4.80;;;;;;;;;;7387336;19;20654;-72
2022/10/26 06:54:40;;;;;;;9.07;4.47;;;;;;;;;;7380158;19;20006;-76
2022/10/26 06:57:09;;;;;;;10.70;4.93;;;;;;;;;;7388071;19;19995;-81
2022/10/26 07:00:02;;;;;;;11.07;5.60;;;;;;;;;;7387214;19;20167;-75
2022/10/26 07:02:27;;;;;;;10.88;5.25;;;;;;;;;;7386918;19;20026;-75
2022/10/26 07:04:53;;;;;;;13.55;4.50;;;;;;;;;;7388936;19;20374;-73
2022/10/26 07:07:27;;;;;;;11.55;4.97;;;;;;;;;;7389161;19;20011;-76
2022/10/26 07:09:53;;;;;;;11.82;4.72;;;;;;;;;;7386981;19;20006;-75
2022/10/26 07:12:18;;;;;;;9.55;4.80;;;;;;;;;;7387872;19;19999;-75
2022/10/26 07:14:43;;;;;;;8.82;4.03;;;;;;;;;;7388295;19;20007;-75
2022/10/26 07:17:09;;;;;;;12.23;5.28;;;;;;;;;;7388604;19;20002;-77
2022/10/26 07:19:35;;;;;;;13.40;4.97;;;;;;;;;;7385875;19;20019;-76
2022/10/26 07:22:01;;;;;;;13.02;4.93;;;;;;;;;;7386626;19;20039;-74
2022/10/26 07:24:30;;;;;;;12.02;5.38;;;;;;;;;;7389357;19;20003;-76
2022/10/26 07:26:57;;;;;;;10.57;4.72;;;;;;;;;;7388871;19;20038;-76
2022/10/26 07:29:23;;;;;;;10.57;4.50;;;;;;;;;;7386931;19;20007;-75
2022/10/26 07:31:48;;;;;;;11.60;5.05;;;;;;;;;;7384356;19;20472;-75
2022/10/26 07:34:14;;;;;;;14.35;5.10;;;;;;;;;;7387956;19;20012;-75
2022/10/26 07:36:39;;;;;;;8.05;4.55;;;;;;;;;;7393593;19;20007;-76
2022/10/26 07:39:05;;;;;;;13.90;5.38;;;;;;;;;;7395847;19;20027;-76
2022/10/26 07:41:31;;;;;;;10.23;5.20;;;;;;;;;;7396458;19;20496;-77
2022/10/26 07:43:56;;;;;;;12.15;5.15;;;;;;;;;;7397693;19;20007;-73
2022/10/26 07:46:22;;;;;;;10.80;4.47;;;;;;;;;;7394796;19;20412;-78
2022/10/26 07:48:47;;;;;;;11.98;4.88;;;;;;;;;;7395427;19;20070;-78
2022/10/26 07:51:15;;;;;;;12.82;4.57;;;;;;;;;;7392414;19;20013;-76
2022/10/26 07:53:40;;;;;;;9.23;4.57;;;;;;;;;;7396034;19;20003;-72
2022/10/26 07:56:06;;;;;;;11.63;4.57;;;;;;;;;;7397175;19;20013;-71
2022/10/26 07:58:32;;;;;;;10.02;4.45;;;;;;;;;;7392736;19;20008;-73
2022/10/26 08:01:08;;;;;;;10.43;5.03;;;;;;;;;;7394141;19;20006;-75
2022/10/26 08:03:33;;;;;;;11.55;4.63;;;;;;;;;;7394947;19;20679;-74
2022/10/26 08:05:58;;;;;;;8.20;4.78;;;;;;;;;;7382808;19;20010;-73
2022/10/26 08:08:24;;;;;;;11.20;4.07;;;;;;;;;;7392135;19;20035;-74
2022/10/26 08:10:49;;;;;;;11.73;4.32;;;;;;;;;;7391247;19;20575;-74
2022/10/26 08:13:17;;;;;;;9.50;4.50;;;;;;;;;;7392950;19;20018;-74
2022/10/26 08:15:43;;;;;;;7.50;3.65;;;;;;;;;;7393738;19;20108;-75
2022/10/26 08:18:08;;;;;;;11.05;4.53;;;;;;;;;;7395142;19;20531;-76
2022/10/26 08:20:34;;;;;;;9.38;4.10;;;;;;;;;;7391413;19;19994;-77
2022/10/26 08:23:00;;;;;;;8.02;4.30;;;;;;;;;;7392589;19;20401;-76
2022/10/26 08:25:25;;;;;;;12.73;4.28;;;;;;;;;;7395503;19;19999;-76
2022/10/26 08:27:51;;;;;;;7.75;3.60;;;;;;;;;;7392474;19;20021;-78
2022/10/26 08:30:16;;;;;;;12.80;3.97;;;;;;;;;;7391090;19;19994;-74
2022/10/26 08:32:43;;;;;;;12.75;3.40;;;;;;;;;;7391688;19;20022;-74
2022/10/26 08:35:08;;;;;;;5.57;3.22;;;;;;;;;;7393646;19;20003;-73
2022/10/26 08:37:34;;;;;;;7.05;3.58;;;;;;;;;;7391973;19;20003;-73
2022/10/26 08:39:59;;;;;;;7.50;2.90;;;;;;;;;;7393590;19;19999;-74
2022/10/26 08:42:34;;;;;;;9.85;3.80;;;;;;;;;;7388601;19;19995;-77
2022/10/26 08:45:27;;;;;;;9.18;3.33;;;;;;;;;;7392416;19;19999;-75
2022/10/26 08:47:57;;;;;;;8.45;3.15;;;;;;;;;;7391495;19;20006;-77
2022/10/26 08:50:31;;;;;;;6.28;3.13;;;;;;;;;;7390298;19;19994;-76
2022/10/26 08:53:16;;;;;;;7.32;3.30;;;;;;;;;;7390291;19;19995;-75
2022/10/26 08:55:49;;;;;;;7.57;3.22;;;;;;;;;;7393546;19;20037;-76
2022/10/26 08:58:19;;;;;;;9.23;3.03;;;;;;;;;;7392761;19;20037;-76
2022/10/26 09:00:48;;;;;;;8.50;3.30;;;;;;;;;;7391553;19;20007;-77
2022/10/26 09:03:15;;;;;;;7.50;3.40;;;;;;;;;;7389930;19;20027;-77
2022/10/26 09:06:00;;;;;;;7.03;3.88;;;;;;;;;;7392605;19;19994;-77
2022/10/26 09:08:36;;;;;;;8.57;3.67;;;;;;;;;;7390986;19;20381;-77
2022/10/26 09:11:39;;;;;;;7.28;3.30;;;;;;;;;;7390936;19;20002;-76
2022/10/26 09:14:19;;;;;;;6.93;3.45;;;;;;;;;;7391790;19;19994;-76
2022/10/26 09:17:00;;;;;;;6.57;3.10;;;;;;;;;;7392375;19;20426;-72
2022/10/26 09:19:46;;;;;;;8.00;3.35;;;;;;;;;;7391091;19;19994;-73
2022/10/26 09:22:24;;;;;;;9.07;3.70;;;;;;;;;;7390038;19;20089;-73
2022/10/26 09:24:55;;;;;;;6.68;3.30;;;;;;;;;;7391742;19;20002;-74
2022/10/26 09:27:26;;;;;;;5.65;3.25;;;;;;;;;;7390603;19;19994;-75
2022/10/26 09:29:53;;;;;;;7.90;3.20;;;;;;;;;;7387764;19;19994;-75
2022/10/26 09:32:44;;;;;;;6.43;3.03;;;;;;;;;;7389666;19;20001;-75
2022/10/26 09:35:18;;;;;;;6.75;3.30;;;;;;;;;;7387998;19;20001;-75
2022/10/26 09:38:09;;;;;;;9.23;3.55;;;;;;;;;;7390405;19;20030;-75
2022/10/26 09:40:45;;;;;;;9.85;2.45;;;;;;;;;;7390112;19;19998;-75
2022/10/26 09:43:29;;;;;;;8.60;2.65;;;;;;;;;;7388885;19;20003;-74
2022/10/26 09:45:54;;;;;;;9.48;2.55;;;;;;;;;;7390176;19;20005;-74
2022/10/26 09:48:56;;;;;;;5.93;2.47;;;;;;;;;;7391619;19;19991;-75
2022/10/26 09:51:22;;;;;;;5.32;2.30;;;;;;;;;;7389466;19;20003;-76
2022/10/26 09:53:48;;;;;;;4.57;2.30;;;;;;;;;;7391194;19;20001;-76
2022/10/26 09:56:16;;;;;;;5.65;2.20;;;;;;;;;;7391810;19;20054;-75
2022/10/26 09:58:46;;;;;;;5.97;2.55;;;;;;;;;;7388644;19;20313;-76
2022/10/26 10:01:26;;;;;;;7.60;2.15;;;;;;;;;;7322779;19;20010;-76
2022/10/26 10:04:21;;;;;;;5.18;2.63;;;;;;;;;;7391066;19;20009;-76
2022/10/26 10:06:49;;;;;;;7.18;2.42;;;;;;;;;;7386218;19;19991;-76
2022/10/26 10:09:16;;;;;;;8.20;3.10;;;;;;;;;;7384280;19;19999;-83
2022/10/26 10:11:54;;;;;;;5.75;2.67;;;;;;;;;;7384844;19;19995;-78
2022/10/26 10:14:22;;;;;;;4.82;2.60;;;;;;;;;;7386938;19;20326;-77
2022/10/26 10:16:53;;;;;;;5.80;2.40;;;;;;;;;;7384967;19;20010;-78
2022/10/26 10:19:30;;;;;;;11.77;2.60;;;;;;;;;;7386216;19;20024;-80
2022/10/26 10:21:58;;;;;;;6.15;2.40;;;;;;;;;;7385617;19;19998;-79
2022/10/26 10:24:28;;;;;;;6.28;2.50;;;;;;;;;;7386923;19;20062;-80
2022/10/26 10:27:23;;;;;;;5.80;3.00;;;;;;;;;;7388040;19;19998;-76
2022/10/26 10:29:51;;;;;;;9.00;2.47;;;;;;;;;;7381985;19;20780;-76
2022/10/26 10:32:19;;;;;;;6.82;2.63;;;;;;;;;;7381158;19;20464;-76
2022/10/26 10:34:46;;;;;;;5.00;2.17;;;;;;;;;;7384472;19;20114;-76
2022/10/26 10:37:24;;;;;;;9.57;2.55;;;;;;;;;;7385632;19;19991;-76
2022/10/26 10:39:50;;;;;;;4.05;2.20;;;;;;;;;;7382607;19;20005;-76
2022/10/26 10:42:28;;;;;;;6.10;2.60;;;;;;;;;;7381765;19;19999;-76
2022/10/26 10:44:56;;;;;;;8.75;2.30;;;;;;;;;;7384522;19;20107;-76
2022/10/26 10:47:24;;;;;;;6.15;2.45;;;;;;;;;;7389325;19;20074;-76
2022/10/26 10:49:57;;;;;;;7.57;2.47;;;;;;;;;;7388282;19;19999;-76
2022/10/26 10:52:25;;;;;;;8.50;2.25;;;;;;;;;;7385893;19;19994;-76
2022/10/26 10:55:05;;;;;;;6.28;2.20;;;;;;;;;;7386147;19;20496;-76
2022/10/26 10:58:00;;;;;;;6.13;2.50;;;;;;;;;;7387518;19;20462;-75
2022/10/26 11:00:26;;;;;;;6.97;2.17;;;;;;;;;;7387074;19;20002;-75
2022/10/26 11:03:15;;;;;;;17.45;8.23;;;;;;;;;;7386624;19;20003;-75
2022/10/26 11:05:53;;;;;;;4.00;2.30;;;;;;;;;;7389102;19;20009;-75
2022/10/26 11:08:43;;;;;;;10.75;2.55;;;;;;;;;;7389717;19;19998;-74
2022/10/26 11:11:14;;;;;;;4.23;2.20;;;;;;;;;;7388967;19;19998;-73
2022/10/26 11:13:52;;;;;;;4.63;2.38;;;;;;;;;;7394603;19;20239;-76
2022/10/26 11:16:23;;;;;;;7.30;2.20;;;;;;;;;;7397188;19;20706;-75
2022/10/26 11:19:02;;;;;;;10.65;2.92;;;;;;;;;;7396182;19;19990;-75
2022/10/26 11:21:29;;;;;;;8.27;2.50;;;;;;;;;;7392544;19;20002;-75
2022/10/26 11:23:54;;;;;;;7.70;2.42;;;;;;;;;;7396757;19;20002;-74
2022/10/26 11:26:22;;;;;;;4.47;2.10;;;;;;;;;;7397787;19;20005;-73
2022/10/26 11:28:54;;;;;;;6.18;2.47;;;;;;;;;;7393559;19;20659;-75
2022/10/26 11:31:29;;;;;;;5.90;2.50;;;;;;;;;;7393599;19;20031;-74
2022/10/26 11:34:12;;;;;;;8.60;2.22;;;;;;;;;;7396999;19;20017;-75
2022/10/26 11:36:40;;;;;;;7.60;2.30;;;;;;;;;;7393023;19;20003;-75
2022/10/26 11:39:24;;;;;;;5.25;2.30;;;;;;;;;;7395214;19;20003;-74
2022/10/26 11:42:01;;;;;;;5.70;2.70;;;;;;;;;;7389605;19;20314;-74
2022/10/26 11:44:34;;;;;;;5.80;2.47;;;;;;;;;;7387929;19;20535;-74
2022/10/26 11:47:17;;;;;;;4.22;2.15;;;;;;;;;;7396341;19;20006;-72
2022/10/26 11:49:56;;;;;;;6.82;2.55;;;;;;;;;;7392937;19;20436;-72
2022/10/26 11:52:28;;;;;;;6.38;2.42;;;;;;;;;;7392695;19;20062;-70
2022/10/26 11:54:57;;;;;;;4.95;2.08;;;;;;;;;;7394414;19;20010;-72
2022/10/26 11:57:26;;;;;;;6.28;2.45;;;;;;;;;;7393662;19;20072;-73
2022/10/26 11:59:57;;;;;;;8.77;2.50;;;;;;;;;;7393077;19;19998;-74
2022/10/26 12:02:24;;;;;;;7.20;2.70;;;;;;;;;;7393375;19;20293;-73
2022/10/26 12:05:21;;;;;;;7.45;2.72;;;;;;;;;;7394509;19;19999;-74
2022/10/26 12:08:04;;;;;;;7.25;2.35;;;;;;;;;;7394423;19;20006;-70
2022/10/26 12:10:35;;;;;;;8.90;2.17;;;;;;;;;;7392561;19;19998;-76
2022/10/26 12:13:16;;;;;;;8.00;2.03;;;;;;;;;;7390523;19;20410;-76
2022/10/26 12:16:00;;;;;;;6.07;2.10;;;;;;;;;;7394014;19;20010;-75
2022/10/26 12:18:35;;;;;;;4.97;2.05;;;;;;;;;;7394084;19;19994;-77
2022/10/26 12:21:05;;;;;;;5.30;2.30;;;;;;;;;;7389109;19;19994;-76
2022/10/26 12:23:35;;;;;;;5.87;2.33;;;;;;;;;;7370775;19;20019;-76
2022/10/26 12:26:22;;;;;;;7.00;2.10;;;;;;;;;;7394156;19;20013;-74
2022/10/26 12:28:48;;;;;;;10.30;2.55;;;;;;;;;;7392558;19;20006;-74
2022/10/26 12:31:31;;;;;;;4.00;2.13;;;;;;;;;;7390779;19;20011;-69
2022/10/26 12:33:58;;;;;;;4.90;2.10;;;;;;;;;;7394587;19;19994;-71
2022/10/26 12:36:45;;;;;;;8.98;2.38;;;;;;;;;;7393892;19;20003;-74
2022/10/26 12:39:26;;;;;;;5.10;2.42;;;;;;;;;;7390595;19;20045;-72
2022/10/26 12:41:56;;;;;;;8.65;2.10;;;;;;;;;;7365768;19;20014;-71
2022/10/26 12:44:44;;;;;;;6.80;1.97;;;;;;;;;;7393275;19;19999;-70
2022/10/26 12:47:29;;;;;;;8.05;2.20;;;;;;;;;;7391267;19;20019;-70
2022/10/26 12:50:22;;;;;;;7.30;1.88;;;;;;;;;;7390477;19;20115;-71
2022/10/26 12:53:04;;;;;;;6.25;2.28;;;;;;;;;;7391687;19;19999;-79
2022/10/26 12:55:35;;;;;;;7.22;2.20;;;;;;;;;;7393486;19;20010;-77
2022/10/26 12:58:27;;;;;;;5.65;2.08;;;;;;;;;;7393069;19;19999;-76
2022/10/26 13:00:58;;;;;;;6.20;2.08;;;;;;;;;;7393920;19;20017;-81
2022/10/26 13:03:34;;;;;;;6.60;2.40;;;;;;;;;;7391947;19;20021;-73
2022/10/26 13:06:37;;;;;;;4.25;1.80;;;;;;;;;;7393516;19;20406;-75
2022/10/26 13:09:15;;;;;;;9.13;2.35;;;;;;;;;;7392053;19;19999;-73
2022/10/26 13:11:47;;;;;;;12.35;2.55;;;;;;;;;;7389045;19;20460;-75
2022/10/26 13:14:26;;;;;;;7.22;2.03;;;;;;;;;;7391948;19;20536;-81
2022/10/26 13:16:51;;;;;;;4.53;1.77;;;;;;;;;;7393204;19;20006;-75
2022/10/26 13:19:31;;;;;;;4.85;1.80;;;;;;;;;;7390582;19;19998;-84
2022/10/26 13:21:58;;;;;;;4.33;1.77;;;;;;;;;;7388065;19;20070;-76
2022/10/26 13:24:25;;;;;;;4.20;1.90;;;;;;;;;;7391052;19;20286;-78
2022/10/26 13:27:06;;;;;;;8.20;2.40;;;;;;;;;;7393203;19;20002;-78
2022/10/26 13:29:52;;;;;;;8.70;5.47;;;;;;;;;;7391410;19;20007;-84
2022/10/26 13:32:22;;;;;;;10.07;3.47;;;;;;;;;;7388268;19;20484;-75
2022/10/26 13:34:47;;;;;;;17.03;11.30;;;;;;;;;;7388248;19;20092;-75
2022/10/26 13:37:24;;;;;;;6.82;2.42;;;;;;;;;;7391397;19;20003;-76
2022/10/26 13:39:54;;;;;;;7.30;2.00;;;;;;;;;;7391908;19;19999;-77
2022/10/26 13:42:23;;;;;;;4.32;2.15;;;;;;;;;;7387264;19;20432;-74
2022/10/26 13:45:11;;;;;;;6.38;2.00;;;;;;;;;;7392446;19;20006;-76
2022/10/26 13:48:11;;;;;;;4.72;1.80;;;;;;;;;;7393210;19;20026;-82
2022/10/26 13:50:47;;;;;;;3.50;1.58;;;;;;;;;;7392085;19;20078;-71
2022/10/26 13:53:28;;;;;;;5.60;1.80;;;;;;;;;;7389011;19;20058;-76
2022/10/26 13:56:01;;;;;;;3.72;1.60;;;;;;;;;;7392830;19;20357;-76
2022/10/26 13:58:37;;;;;;;5.15;2.00;;;;;;;;;;7391562;19;19991;-75
2022/10/26 14:01:20;;;;;;;5.13;1.70;;;;;;;;;;7389800;19;20045;-81
2022/10/26 14:03:47;;;;;;;6.25;1.83;;;;;;;;;;7391167;19;19998;-71
2022/10/26 14:06:25;;;;;;;4.68;1.70;;;;;;;;;;7391775;19;20002;-71
2022/10/26 14:08:53;;;;;;;2.95;1.60;;;;;;;;;;7389406;19;20006;-71
2022/10/26 14:11:21;;;;;;;5.40;1.90;;;;;;;;;;7389035;19;20349;-71
2022/10/26 14:13:49;;;;;;;5.20;1.83;;;;;;;;;;7389161;19;20013;-71
2022/10/26 14:16:20;;;;;;;14.80;2.10;;;;;;;;;;7387728;19;20002;-70
2022/10/26 14:18:47;;;;;;;4.65;1.58;;;;;;;;;;7384471;19;20675;-71
2022/10/26 14:21:16;;;;;;;4.10;1.77;;;;;;;;;;7384353;19;20017;-72
2022/10/26 14:23:58;;;;;;;4.30;2.00;;;;;;;;;;7388834;19;19998;-72
2022/10/26 14:26:26;;;;;;;5.65;1.70;;;;;;;;;;7387099;19;20769;-71
2022/10/26 14:28:58;;;;;;;4.63;1.80;;;;;;;;;;7386666;19;20467;-71
2022/10/26 14:31:32;;;;;;;6.80;1.90;;;;;;;;;;7386309;19;20358;-71
2022/10/26 14:34:00;;;;;;;7.75;1.88;;;;;;;;;;7390357;19;20002;-71
2022/10/26 14:36:32;;;;;;;28.35;17.50;;;;;;;;;;7390576;19;20567;-71
2022/10/26 14:39:01;;;;;;;8.13;3.47;;;;;;;;;;7388367;19;20007;-71
2022/10/26 14:41:28;;;;;;;9.82;4.25;;;;;;;;;;7385396;19;20034;-72
2022/10/26 14:43:56;;;;;;;8.73;2.00;;;;;;;;;;7390531;19;20007;-72
2022/10/26 14:46:21;;;;;;;4.80;1.83;;;;;;;;;;7398604;19;20034;-72
2022/10/26 14:48:55;;;;;;;3.60;1.80;;;;;;;;;;7395046;19;20648;-72
2022/10/26 14:51:26;;;;;;;6.30;1.83;;;;;;;;;;7394253;19;20107;-71
2022/10/26 14:53:55;;;;;;;6.30;1.77;;;;;;;;;;7398137;19;20007;-72
2022/10/26 14:56:29;;;;;;;9.02;1.98;;;;;;;;;;7397672;19;20095;-71
2022/10/26 14:58:56;;;;;;;4.55;1.80;;;;;;;;;;7394571;19;20329;-72
2022/10/26 15:01:21;;;;;;;4.70;1.60;;;;;;;;;;7392461;19;20006;-72
2022/10/26 15:03:58;;;;;;;5.65;1.77;;;;;;;;;;7397907;19;20006;-71